sensor_id;sensor_type;location;lat;lon;timestamp;P1;durP1;ratioP1;P2;durP2;ratioP2
11010;SDS011;5558;42.702;23.178;2022-07-09T00:02:10;4.90;;;4.50;;
11010;SDS011;5558;42.702;23.178;2022-07-09T00:04:36;4.87;;;4.47;;
11010;SDS011;5558;42.702;23.178;2022-07-09T00:07:03;5.10;;;4.70;;
11010;SDS011;5558;42.702;23.178;2022-07-09T00:09:30;4.90;;;4.50;;
11010;SDS011;5558;42.702;23.178;2022-07-09T00:11:57;5.00;;;4.60;;
11010;SDS011;5558;42.702;23.178;2022-07-09T00:14:24;5.50;;;5.10;;
11010;SDS011;5558;42.702;23.178;2022-07-09T00:16:52;4.60;;;4.20;;
11010;SDS011;5558;42.702;23.178;2022-07-09T00:19:19;4.70;;;4.30;;
11010;SDS011;5558;42.702;23.178;2022-07-09T00:21:45;4.93;;;4.53;;
11010;SDS011;5558;42.702;23.178;2022-07-09T00:24:12;5.20;;;4.80;;
11010;SDS011;5558;42.702;23.178;2022-07-09T00:26:39;5.00;;;4.60;;
11010;SDS011;5558;42.702;23.178;2022-07-09T00:29:05;5.33;;;4.53;;
11010;SDS011;5558;42.702;23.178;2022-07-09T00:31:32;4.70;;;4.30;;
11010;SDS011;5558;42.702;23.178;2022-07-09T00:34:00;4.40;;;4.10;;
11010;SDS011;5558;42.702;23.178;2022-07-09T00:36:27;4.03;;;3.73;;
11010;SDS011;5558;42.702;23.178;2022-07-09T00:38:54;4.07;;;3.77;;
11010;SDS011;5558;42.702;23.178;2022-07-09T00:41:21;4.20;;;3.90;;
11010;SDS011;5558;42.702;23.178;2022-07-09T00:43:48;3.73;;;3.43;;
11010;SDS011;5558;42.702;23.178;2022-07-09T00:46:16;3.90;;;3.60;;
11010;SDS011;5558;42.702;23.178;2022-07-09T00:48:43;3.83;;;3.53;;
11010;SDS011;5558;42.702;23.178;2022-07-09T00:51:12;3.87;;;3.57;;
11010;SDS011;5558;42.702;23.178;2022-07-09T00:53:40;3.67;;;3.47;;
11010;SDS011;5558;42.702;23.178;2022-07-09T00:56:07;3.90;;;3.60;;
11010;SDS011;5558;42.702;23.178;2022-07-09T00:58:35;3.90;;;3.60;;
11010;SDS011;5558;42.702;23.178;2022-07-09T01:01:03;4.10;;;3.80;;
11010;SDS011;5558;42.702;23.178;2022-07-09T01:03:30;4.27;;;3.97;;
11010;SDS011;5558;42.702;23.178;2022-07-09T01:05:57;4.20;;;3.90;;
11010;SDS011;5558;42.702;23.178;2022-07-09T01:08:25;4.20;;;3.90;;
11010;SDS011;5558;42.702;23.178;2022-07-09T01:10:52;4.27;;;3.87;;
11010;SDS011;5558;42.702;23.178;2022-07-09T01:13:19;4.10;;;3.70;;
11010;SDS011;5558;42.702;23.178;2022-07-09T01:15:46;3.77;;;3.50;;
11010;SDS011;5558;42.702;23.178;2022-07-09T01:18:14;3.80;;;3.53;;
11010;SDS011;5558;42.702;23.178;2022-07-09T01:20:42;4.00;;;3.70;;
11010;SDS011;5558;42.702;23.178;2022-07-09T01:23:09;4.10;;;3.80;;
11010;SDS011;5558;42.702;23.178;2022-07-09T01:25:37;4.00;;;3.70;;
11010;SDS011;5558;42.702;23.178;2022-07-09T01:28:06;4.10;;;3.80;;
11010;SDS011;5558;42.702;23.178;2022-07-09T01:30:35;4.10;;;3.80;;
11010;SDS011;5558;42.702;23.178;2022-07-09T01:33:03;3.80;;;3.50;;
11010;SDS011;5558;42.702;23.178;2022-07-09T01:35:30;3.70;;;3.40;;
11010;SDS011;5558;42.702;23.178;2022-07-09T01:37:58;3.87;;;3.57;;
11010;SDS011;5558;42.702;23.178;2022-07-09T01:40:25;3.80;;;3.50;;
11010;SDS011;5558;42.702;23.178;2022-07-09T01:42:52;3.63;;;3.33;;
11010;SDS011;5558;42.702;23.178;2022-07-09T01:45:19;3.60;;;3.30;;
11010;SDS011;5558;42.702;23.178;2022-07-09T01:47:46;3.30;;;3.10;;
11010;SDS011;5558;42.702;23.178;2022-07-09T01:50:12;3.17;;;2.97;;
11010;SDS011;5558;42.702;23.178;2022-07-09T01:52:39;3.30;;;3.00;;
11010;SDS011;5558;42.702;23.178;2022-07-09T01:55:08;3.07;;;2.87;;
11010;SDS011;5558;42.702;23.178;2022-07-09T01:57:35;3.20;;;3.00;;
11010;SDS011;5558;42.702;23.178;2022-07-09T02:00:02;3.30;;;3.10;;
11010;SDS011;5558;42.702;23.178;2022-07-09T02:02:30;3.30;;;3.10;;
11010;SDS011;5558;42.702;23.178;2022-07-09T02:04:57;3.80;;;3.23;;
11010;SDS011;5558;42.702;23.178;2022-07-09T02:07:24;3.33;;;3.10;;
11010;SDS011;5558;42.702;23.178;2022-07-09T02:09:50;3.43;;;3.23;;
11010;SDS011;5558;42.702;23.178;2022-07-09T02:12:19;3.43;;;3.20;;
11010;SDS011;5558;42.702;23.178;2022-07-09T02:14:45;3.43;;;3.13;;
11010;SDS011;5558;42.702;23.178;2022-07-09T02:17:12;3.47;;;3.27;;
11010;SDS011;5558;42.702;23.178;2022-07-09T02:19:39;3.33;;;3.10;;
11010;SDS011;5558;42.702;23.178;2022-07-09T02:22:06;3.80;;;3.50;;
11010;SDS011;5558;42.702;23.178;2022-07-09T02:24:33;3.53;;;3.27;;
11010;SDS011;5558;42.702;23.178;2022-07-09T02:27:00;3.37;;;3.17;;
11010;SDS011;5558;42.702;23.178;2022-07-09T02:29:28;3.90;;;3.50;;
11010;SDS011;5558;42.702;23.178;2022-07-09T02:31:55;3.50;;;3.20;;
11010;SDS011;5558;42.702;23.178;2022-07-09T02:34:22;3.67;;;3.37;;
11010;SDS011;5558;42.702;23.178;2022-07-09T02:36:49;3.10;;;2.90;;
11010;SDS011;5558;42.702;23.178;2022-07-09T02:39:16;3.40;;;3.10;;
11010;SDS011;5558;42.702;23.178;2022-07-09T02:41:42;3.13;;;2.93;;
11010;SDS011;5558;42.702;23.178;2022-07-09T02:44:09;3.23;;;3.03;;
11010;SDS011;5558;42.702;23.178;2022-07-09T02:46:38;3.37;;;3.17;;
11010;SDS011;5558;42.702;23.178;2022-07-09T02:49:05;3.33;;;3.13;;
11010;SDS011;5558;42.702;23.178;2022-07-09T02:51:31;3.30;;;3.10;;
11010;SDS011;5558;42.702;23.178;2022-07-09T02:53:58;3.37;;;3.17;;
11010;SDS011;5558;42.702;23.178;2022-07-09T02:56:25;3.50;;;3.30;;
11010;SDS011;5558;42.702;23.178;2022-07-09T02:58:51;3.80;;;3.50;;
11010;SDS011;5558;42.702;23.178;2022-07-09T03:01:18;3.90;;;3.60;;
11010;SDS011;5558;42.702;23.178;2022-07-09T03:03:46;3.70;;;3.50;;
11010;SDS011;5558;42.702;23.178;2022-07-09T03:06:13;4.53;;;4.13;;
11010;SDS011;5558;42.702;23.178;2022-07-09T03:08:40;4.10;;;3.80;;
11010;SDS011;5558;42.702;23.178;2022-07-09T03:11:06;3.70;;;3.40;;
11010;SDS011;5558;42.702;23.178;2022-07-09T03:13:34;3.70;;;3.50;;
11010;SDS011;5558;42.702;23.178;2022-07-09T03:16:01;3.70;;;3.50;;
11010;SDS011;5558;42.702;23.178;2022-07-09T03:18:28;3.63;;;3.33;;
11010;SDS011;5558;42.702;23.178;2022-07-09T03:20:56;3.80;;;3.50;;
11010;SDS011;5558;42.702;23.178;2022-07-09T03:23:23;3.90;;;3.60;;
11010;SDS011;5558;42.702;23.178;2022-07-09T03:25:49;3.60;;;3.40;;
11010;SDS011;5558;42.702;23.178;2022-07-09T03:28:17;3.80;;;3.50;;
11010;SDS011;5558;42.702;23.178;2022-07-09T03:30:44;4.00;;;3.70;;
11010;SDS011;5558;42.702;23.178;2022-07-09T03:33:11;4.10;;;3.80;;
11010;SDS011;5558;42.702;23.178;2022-07-09T03:35:38;3.90;;;3.60;;
11010;SDS011;5558;42.702;23.178;2022-07-09T03:38:06;4.10;;;3.80;;
11010;SDS011;5558;42.702;23.178;2022-07-09T03:40:33;3.90;;;3.60;;
11010;SDS011;5558;42.702;23.178;2022-07-09T03:43:00;4.00;;;3.70;;
11010;SDS011;5558;42.702;23.178;2022-07-09T03:45:26;4.17;;;3.87;;
11010;SDS011;5558;42.702;23.178;2022-07-09T03:47:55;4.10;;;3.80;;
11010;SDS011;5558;42.702;23.178;2022-07-09T03:50:22;3.90;;;3.60;;
11010;SDS011;5558;42.702;23.178;2022-07-09T03:52:49;4.30;;;3.90;;
11010;SDS011;5558;42.702;23.178;2022-07-09T03:55:17;3.93;;;3.63;;
11010;SDS011;5558;42.702;23.178;2022-07-09T03:57:44;3.80;;;3.50;;
11010;SDS011;5558;42.702;23.178;2022-07-09T04:00:11;4.00;;;3.70;;
11010;SDS011;5558;42.702;23.178;2022-07-09T04:02:39;4.27;;;3.90;;
11010;SDS011;5558;42.702;23.178;2022-07-09T04:05:06;3.57;;;3.27;;
11010;SDS011;5558;42.702;23.178;2022-07-09T04:07:34;3.80;;;3.50;;
11010;SDS011;5558;42.702;23.178;2022-07-09T04:10:00;3.50;;;3.30;;
11010;SDS011;5558;42.702;23.178;2022-07-09T04:12:28;3.60;;;3.40;;
11010;SDS011;5558;42.702;23.178;2022-07-09T04:14:55;3.60;;;3.30;;
11010;SDS011;5558;42.702;23.178;2022-07-09T04:17:22;3.80;;;3.50;;
11010;SDS011;5558;42.702;23.178;2022-07-09T04:19:48;3.70;;;3.50;;
11010;SDS011;5558;42.702;23.178;2022-07-09T04:22:15;3.90;;;3.60;;
11010;SDS011;5558;42.702;23.178;2022-07-09T04:24:42;3.80;;;3.60;;
11010;SDS011;5558;42.702;23.178;2022-07-09T04:27:08;3.80;;;3.50;;
11010;SDS011;5558;42.702;23.178;2022-07-09T04:29:37;3.53;;;3.30;;
11010;SDS011;5558;42.702;23.178;2022-07-09T04:32:04;3.80;;;3.50;;
11010;SDS011;5558;42.702;23.178;2022-07-09T04:34:31;3.50;;;3.30;;
11010;SDS011;5558;42.702;23.178;2022-07-09T04:36:57;3.60;;;3.30;;
11010;SDS011;5558;42.702;23.178;2022-07-09T04:39:24;3.53;;;3.33;;
11010;SDS011;5558;42.702;23.178;2022-07-09T04:41:52;3.60;;;3.40;;
11010;SDS011;5558;42.702;23.178;2022-07-09T04:44:19;3.77;;;3.50;;
11010;SDS011;5558;42.702;23.178;2022-07-09T04:46:47;3.97;;;3.53;;
11010;SDS011;5558;42.702;23.178;2022-07-09T04:49:14;3.53;;;3.30;;
11010;SDS011;5558;42.702;23.178;2022-07-09T04:51:40;3.40;;;3.20;;
11010;SDS011;5558;42.702;23.178;2022-07-09T04:54:07;3.77;;;3.30;;
11010;SDS011;5558;42.702;23.178;2022-07-09T04:56:34;3.40;;;3.20;;
11010;SDS011;5558;42.702;23.178;2022-07-09T04:59:01;3.50;;;3.20;;
11010;SDS011;5558;42.702;23.178;2022-07-09T05:01:28;3.13;;;2.93;;
11010;SDS011;5558;42.702;23.178;2022-07-09T05:03:57;2.90;;;2.70;;
11010;SDS011;5558;42.702;23.178;2022-07-09T05:06:23;2.87;;;2.67;;
11010;SDS011;5558;42.702;23.178;2022-07-09T05:08:50;3.00;;;2.80;;
11010;SDS011;5558;42.702;23.178;2022-07-09T05:11:17;3.07;;;2.87;;
11010;SDS011;5558;42.702;23.178;2022-07-09T05:13:44;2.80;;;2.60;;
11010;SDS011;5558;42.702;23.178;2022-07-09T05:16:12;2.90;;;2.70;;
11010;SDS011;5558;42.702;23.178;2022-07-09T05:18:39;2.80;;;2.60;;
11010;SDS011;5558;42.702;23.178;2022-07-09T05:21:07;3.00;;;2.80;;
11010;SDS011;5558;42.702;23.178;2022-07-09T05:23:35;2.87;;;2.67;;
11010;SDS011;5558;42.702;23.178;2022-07-09T05:26:01;4.20;;;2.80;;
11010;SDS011;5558;42.702;23.178;2022-07-09T05:28:28;2.73;;;2.57;;
11010;SDS011;5558;42.702;23.178;2022-07-09T05:30:55;2.80;;;2.60;;
11010;SDS011;5558;42.702;23.178;2022-07-09T05:33:22;2.70;;;2.50;;
11010;SDS011;5558;42.702;23.178;2022-07-09T05:35:49;2.70;;;2.50;;
11010;SDS011;5558;42.702;23.178;2022-07-09T05:38:17;2.57;;;2.43;;
11010;SDS011;5558;42.702;23.178;2022-07-09T05:40:44;2.57;;;2.47;;
11010;SDS011;5558;42.702;23.178;2022-07-09T05:43:11;2.77;;;2.57;;
11010;SDS011;5558;42.702;23.178;2022-07-09T05:45:37;2.53;;;2.40;;
11010;SDS011;5558;42.702;23.178;2022-07-09T05:48:04;2.50;;;2.30;;
11010;SDS011;5558;42.702;23.178;2022-07-09T05:50:31;2.47;;;2.37;;
11010;SDS011;5558;42.702;23.178;2022-07-09T05:52:58;2.67;;;2.47;;
11010;SDS011;5558;42.702;23.178;2022-07-09T05:55:26;2.50;;;2.40;;
11010;SDS011;5558;42.702;23.178;2022-07-09T05:57:53;2.80;;;2.60;;
11010;SDS011;5558;42.702;23.178;2022-07-09T06:00:19;2.33;;;2.23;;
11010;SDS011;5558;42.702;23.178;2022-07-09T06:02:47;2.57;;;2.37;;
11010;SDS011;5558;42.702;23.178;2022-07-09T06:05:13;2.50;;;2.30;;
11010;SDS011;5558;42.702;23.178;2022-07-09T06:07:40;2.40;;;2.30;;
11010;SDS011;5558;42.702;23.178;2022-07-09T06:10:10;2.80;;;2.60;;
11010;SDS011;5558;42.702;23.178;2022-07-09T06:12:40;2.40;;;2.30;;
11010;SDS011;5558;42.702;23.178;2022-07-09T06:15:08;2.30;;;2.20;;
11010;SDS011;5558;42.702;23.178;2022-07-09T06:17:36;2.40;;;2.30;;
11010;SDS011;5558;42.702;23.178;2022-07-09T06:20:03;2.40;;;2.30;;
11010;SDS011;5558;42.702;23.178;2022-07-09T06:22:31;2.40;;;2.20;;
11010;SDS011;5558;42.702;23.178;2022-07-09T06:24:58;2.63;;;2.43;;
11010;SDS011;5558;42.702;23.178;2022-07-09T06:27:25;2.30;;;2.20;;
11010;SDS011;5558;42.702;23.178;2022-07-09T06:29:53;2.43;;;2.33;;
11010;SDS011;5558;42.702;23.178;2022-07-09T06:32:20;3.57;;;2.30;;
11010;SDS011;5558;42.702;23.178;2022-07-09T06:34:47;2.60;;;2.40;;
11010;SDS011;5558;42.702;23.178;2022-07-09T06:37:13;2.70;;;2.50;;
11010;SDS011;5558;42.702;23.178;2022-07-09T06:39:40;2.60;;;2.50;;
11010;SDS011;5558;42.702;23.178;2022-07-09T06:42:14;2.50;;;2.40;;
11010;SDS011;5558;42.702;23.178;2022-07-09T06:44:42;2.83;;;2.70;;
11010;SDS011;5558;42.702;23.178;2022-07-09T06:47:11;2.90;;;2.70;;
11010;SDS011;5558;42.702;23.178;2022-07-09T06:49:38;2.70;;;2.50;;
11010;SDS011;5558;42.702;23.178;2022-07-09T06:52:06;2.80;;;2.60;;
11010;SDS011;5558;42.702;23.178;2022-07-09T06:54:33;3.07;;;2.87;;
11010;SDS011;5558;42.702;23.178;2022-07-09T06:57:01;3.30;;;3.00;;
11010;SDS011;5558;42.702;23.178;2022-07-09T06:59:29;3.23;;;3.03;;
11010;SDS011;5558;42.702;23.178;2022-07-09T07:01:55;3.67;;;3.37;;
11010;SDS011;5558;42.702;23.178;2022-07-09T07:04:24;3.23;;;3.03;;
11010;SDS011;5558;42.702;23.178;2022-07-09T07:06:52;3.70;;;3.50;;
11010;SDS011;5558;42.702;23.178;2022-07-09T07:09:19;4.00;;;3.67;;
11010;SDS011;5558;42.702;23.178;2022-07-09T07:11:47;4.00;;;3.70;;
11010;SDS011;5558;42.702;23.178;2022-07-09T07:14:14;4.30;;;4.00;;
11010;SDS011;5558;42.702;23.178;2022-07-09T07:16:41;4.17;;;3.80;;
11010;SDS011;5558;42.702;23.178;2022-07-09T07:19:08;4.17;;;3.90;;
11010;SDS011;5558;42.702;23.178;2022-07-09T07:21:38;4.30;;;4.00;;
11010;SDS011;5558;42.702;23.178;2022-07-09T07:24:05;4.00;;;3.70;;
11010;SDS011;5558;42.702;23.178;2022-07-09T07:26:33;3.93;;;3.63;;
11010;SDS011;5558;42.702;23.178;2022-07-09T07:29:00;3.60;;;3.40;;
11010;SDS011;5558;42.702;23.178;2022-07-09T07:31:27;3.50;;;3.30;;
11010;SDS011;5558;42.702;23.178;2022-07-09T07:33:54;3.57;;;3.37;;
11010;SDS011;5558;42.702;23.178;2022-07-09T07:36:21;3.57;;;3.37;;
11010;SDS011;5558;42.702;23.178;2022-07-09T07:38:49;3.47;;;3.23;;
11010;SDS011;5558;42.702;23.178;2022-07-09T07:41:15;3.47;;;3.17;;
11010;SDS011;5558;42.702;23.178;2022-07-09T07:43:43;3.50;;;3.30;;
11010;SDS011;5558;42.702;23.178;2022-07-09T07:46:10;3.43;;;3.13;;
11010;SDS011;5558;42.702;23.178;2022-07-09T07:48:36;3.70;;;3.50;;
11010;SDS011;5558;42.702;23.178;2022-07-09T07:51:06;3.10;;;2.90;;
11010;SDS011;5558;42.702;23.178;2022-07-09T07:53:33;3.00;;;2.80;;
11010;SDS011;5558;42.702;23.178;2022-07-09T07:56:02;3.00;;;2.80;;
11010;SDS011;5558;42.702;23.178;2022-07-09T07:58:29;3.00;;;2.80;;
11010;SDS011;5558;42.702;23.178;2022-07-09T08:00:56;2.77;;;2.57;;
11010;SDS011;5558;42.702;23.178;2022-07-09T08:03:24;3.10;;;2.90;;
11010;SDS011;5558;42.702;23.178;2022-07-09T08:05:51;3.03;;;2.83;;
11010;SDS011;5558;42.702;23.178;2022-07-09T08:08:18;3.10;;;2.90;;
11010;SDS011;5558;42.702;23.178;2022-07-09T08:10:45;3.30;;;3.10;;
11010;SDS011;5558;42.702;23.178;2022-07-09T08:13:15;3.30;;;3.00;;
11010;SDS011;5558;42.702;23.178;2022-07-09T08:15:42;3.40;;;3.20;;
11010;SDS011;5558;42.702;23.178;2022-07-09T08:18:10;3.50;;;3.30;;
11010;SDS011;5558;42.702;23.178;2022-07-09T08:20:39;3.23;;;3.03;;
11010;SDS011;5558;42.702;23.178;2022-07-09T08:23:06;3.10;;;2.90;;
11010;SDS011;5558;42.702;23.178;2022-07-09T08:25:33;3.17;;;2.97;;
11010;SDS011;5558;42.702;23.178;2022-07-09T08:28:00;3.10;;;2.90;;
11010;SDS011;5558;42.702;23.178;2022-07-09T08:30:29;3.00;;;2.80;;
11010;SDS011;5558;42.702;23.178;2022-07-09T08:32:55;2.63;;;2.53;;
11010;SDS011;5558;42.702;23.178;2022-07-09T08:35:22;3.00;;;2.80;;
11010;SDS011;5558;42.702;23.178;2022-07-09T08:37:51;2.70;;;2.60;;
11010;SDS011;5558;42.702;23.178;2022-07-09T08:40:17;2.50;;;2.40;;
11010;SDS011;5558;42.702;23.178;2022-07-09T08:42:44;2.90;;;2.70;;
11010;SDS011;5558;42.702;23.178;2022-07-09T08:45:11;2.90;;;2.70;;
11010;SDS011;5558;42.702;23.178;2022-07-09T08:47:41;2.90;;;2.70;;
11010;SDS011;5558;42.702;23.178;2022-07-09T08:50:08;3.10;;;2.90;;
11010;SDS011;5558;42.702;23.178;2022-07-09T08:52:36;2.87;;;2.67;;
11010;SDS011;5558;42.702;23.178;2022-07-09T08:55:06;2.53;;;2.43;;
11010;SDS011;5558;42.702;23.178;2022-07-09T08:57:34;2.83;;;2.63;;
11010;SDS011;5558;42.702;23.178;2022-07-09T09:00:01;2.70;;;2.50;;
11010;SDS011;5558;42.702;23.178;2022-07-09T09:02:33;2.63;;;2.53;;
11010;SDS011;5558;42.702;23.178;2022-07-09T09:05:06;2.60;;;2.40;;
11010;SDS011;5558;42.702;23.178;2022-07-09T09:07:38;2.50;;;2.40;;
11010;SDS011;5558;42.702;23.178;2022-07-09T09:10:05;2.87;;;2.67;;
11010;SDS011;5558;42.702;23.178;2022-07-09T09:12:32;2.60;;;2.40;;
11010;SDS011;5558;42.702;23.178;2022-07-09T09:14:59;2.53;;;2.43;;
11010;SDS011;5558;42.702;23.178;2022-07-09T09:17:32;2.87;;;2.67;;
11010;SDS011;5558;42.702;23.178;2022-07-09T09:19:59;2.50;;;2.40;;
11010;SDS011;5558;42.702;23.178;2022-07-09T09:22:27;2.37;;;2.17;;
11010;SDS011;5558;42.702;23.178;2022-07-09T09:24:54;2.43;;;2.33;;
11010;SDS011;5558;42.702;23.178;2022-07-09T09:27:27;2.50;;;2.30;;
11010;SDS011;5558;42.702;23.178;2022-07-09T09:29:57;3.70;;;2.60;;
11010;SDS011;5558;42.702;23.178;2022-07-09T09:32:25;2.87;;;2.30;;
11010;SDS011;5558;42.702;23.178;2022-07-09T09:34:52;2.50;;;2.40;;
11010;SDS011;5558;42.702;23.178;2022-07-09T09:37:26;2.43;;;2.33;;
11010;SDS011;5558;42.702;23.178;2022-07-09T09:39:54;2.50;;;2.40;;
11010;SDS011;5558;42.702;23.178;2022-07-09T09:42:23;2.20;;;2.10;;
11010;SDS011;5558;42.702;23.178;2022-07-09T09:44:51;2.30;;;2.20;;
11010;SDS011;5558;42.702;23.178;2022-07-09T09:47:19;2.03;;;1.93;;
11010;SDS011;5558;42.702;23.178;2022-07-09T09:49:49;2.17;;;2.07;;
11010;SDS011;5558;42.702;23.178;2022-07-09T09:52:16;2.30;;;2.20;;
11010;SDS011;5558;42.702;23.178;2022-07-09T09:54:46;2.50;;;2.40;;
11010;SDS011;5558;42.702;23.178;2022-07-09T09:57:14;2.73;;;2.53;;
11010;SDS011;5558;42.702;23.178;2022-07-09T09:59:42;2.70;;;2.50;;
11010;SDS011;5558;42.702;23.178;2022-07-09T10:02:10;2.60;;;2.40;;
11010;SDS011;5558;42.702;23.178;2022-07-09T10:04:37;2.60;;;2.40;;
11010;SDS011;5558;42.702;23.178;2022-07-09T10:07:05;2.70;;;2.50;;
11010;SDS011;5558;42.702;23.178;2022-07-09T10:09:32;2.27;;;2.17;;
11010;SDS011;5558;42.702;23.178;2022-07-09T10:12:00;2.20;;;2.10;;
11010;SDS011;5558;42.702;23.178;2022-07-09T10:14:31;2.50;;;2.30;;
11010;SDS011;5558;42.702;23.178;2022-07-09T10:17:11;2.60;;;2.40;;
11010;SDS011;5558;42.702;23.178;2022-07-09T10:19:49;2.20;;;2.10;;
11010;SDS011;5558;42.702;23.178;2022-07-09T10:22:18;2.00;;;1.90;;
11010;SDS011;5558;42.702;23.178;2022-07-09T10:24:45;1.90;;;1.80;;
11010;SDS011;5558;42.702;23.178;2022-07-09T10:27:14;1.90;;;1.80;;
11010;SDS011;5558;42.702;23.178;2022-07-09T10:29:52;1.73;;;1.63;;
11010;SDS011;5558;42.702;23.178;2022-07-09T10:32:21;1.73;;;1.63;;
11010;SDS011;5558;42.702;23.178;2022-07-09T10:34:56;1.73;;;1.63;;
11010;SDS011;5558;42.702;23.178;2022-07-09T10:37:30;1.60;;;1.50;;
11010;SDS011;5558;42.702;23.178;2022-07-09T10:40:04;1.60;;;1.50;;
11010;SDS011;5558;42.702;23.178;2022-07-09T10:42:39;1.70;;;1.60;;
11010;SDS011;5558;42.702;23.178;2022-07-09T10:45:23;1.70;;;1.60;;
11010;SDS011;5558;42.702;23.178;2022-07-09T10:47:54;1.40;;;1.40;;
11010;SDS011;5558;42.702;23.178;2022-07-09T10:50:23;1.70;;;1.60;;
11010;SDS011;5558;42.702;23.178;2022-07-09T10:52:52;1.53;;;1.53;;
11010;SDS011;5558;42.702;23.178;2022-07-09T10:55:20;1.80;;;1.70;;
11010;SDS011;5558;42.702;23.178;2022-07-09T10:57:52;1.70;;;1.60;;
11010;SDS011;5558;42.702;23.178;2022-07-09T11:00:20;2.57;;;1.80;;
11010;SDS011;5558;42.702;23.178;2022-07-09T11:02:54;1.80;;;1.70;;
11010;SDS011;5558;42.702;23.178;2022-07-09T11:05:22;2.00;;;1.80;;
11010;SDS011;5558;42.702;23.178;2022-07-09T11:07:53;1.83;;;1.73;;
11010;SDS011;5558;42.702;23.178;2022-07-09T11:10:21;2.00;;;1.90;;
11010;SDS011;5558;42.702;23.178;2022-07-09T11:12:48;2.50;;;1.90;;
11010;SDS011;5558;42.702;23.178;2022-07-09T11:15:18;2.00;;;1.90;;
11010;SDS011;5558;42.702;23.178;2022-07-09T11:17:53;1.97;;;1.63;;
11010;SDS011;5558;42.702;23.178;2022-07-09T11:20:20;2.10;;;1.90;;
11010;SDS011;5558;42.702;23.178;2022-07-09T11:22:47;2.20;;;1.93;;
11010;SDS011;5558;42.702;23.178;2022-07-09T11:25:14;1.90;;;1.80;;
11010;SDS011;5558;42.702;23.178;2022-07-09T11:27:41;1.93;;;1.80;;
11010;SDS011;5558;42.702;23.178;2022-07-09T11:30:11;1.90;;;1.80;;
11010;SDS011;5558;42.702;23.178;2022-07-09T11:32:41;2.17;;;1.97;;
11010;SDS011;5558;42.702;23.178;2022-07-09T11:35:08;1.57;;;1.57;;
11010;SDS011;5558;42.702;23.178;2022-07-09T11:37:35;1.70;;;1.60;;
11010;SDS011;5558;42.702;23.178;2022-07-09T11:40:03;1.90;;;1.80;;
11010;SDS011;5558;42.702;23.178;2022-07-09T11:42:31;1.57;;;1.53;;
11010;SDS011;5558;42.702;23.178;2022-07-09T11:44:58;1.90;;;1.80;;
11010;SDS011;5558;42.702;23.178;2022-07-09T11:47:33;1.97;;;1.87;;
11010;SDS011;5558;42.702;23.178;2022-07-09T11:50:05;1.70;;;1.60;;
11010;SDS011;5558;42.702;23.178;2022-07-09T11:52:34;1.70;;;1.60;;
11010;SDS011;5558;42.702;23.178;2022-07-09T11:55:01;1.80;;;1.70;;
11010;SDS011;5558;42.702;23.178;2022-07-09T11:57:30;1.77;;;1.67;;
11010;SDS011;5558;42.702;23.178;2022-07-09T11:59:58;1.67;;;1.57;;
11010;SDS011;5558;42.702;23.178;2022-07-09T12:02:26;1.53;;;1.43;;
11010;SDS011;5558;42.702;23.178;2022-07-09T12:04:56;1.47;;;1.40;;
11010;SDS011;5558;42.702;23.178;2022-07-09T12:07:24;1.80;;;1.70;;
11010;SDS011;5558;42.702;23.178;2022-07-09T12:09:57;1.37;;;1.37;;
11010;SDS011;5558;42.702;23.178;2022-07-09T12:12:25;1.67;;;1.57;;
11010;SDS011;5558;42.702;23.178;2022-07-09T12:14:52;1.43;;;1.40;;
11010;SDS011;5558;42.702;23.178;2022-07-09T12:17:20;1.70;;;1.60;;
11010;SDS011;5558;42.702;23.178;2022-07-09T12:19:49;1.60;;;1.50;;
11010;SDS011;5558;42.702;23.178;2022-07-09T12:22:16;1.60;;;1.50;;
11010;SDS011;5558;42.702;23.178;2022-07-09T12:24:44;1.50;;;1.40;;
11010;SDS011;5558;42.702;23.178;2022-07-09T12:27:11;1.37;;;1.27;;
11010;SDS011;5558;42.702;23.178;2022-07-09T12:29:37;1.40;;;1.40;;
11010;SDS011;5558;42.702;23.178;2022-07-09T12:32:04;1.40;;;1.30;;
11010;SDS011;5558;42.702;23.178;2022-07-09T12:34:31;1.53;;;1.43;;
11010;SDS011;5558;42.702;23.178;2022-07-09T12:36:58;1.43;;;1.43;;
11010;SDS011;5558;42.702;23.178;2022-07-09T12:39:25;1.57;;;1.47;;
11010;SDS011;5558;42.702;23.178;2022-07-09T12:41:54;1.30;;;1.30;;
11010;SDS011;5558;42.702;23.178;2022-07-09T12:44:20;1.60;;;1.50;;
11010;SDS011;5558;42.702;23.178;2022-07-09T12:46:47;1.40;;;1.40;;
11010;SDS011;5558;42.702;23.178;2022-07-09T12:49:14;1.60;;;1.50;;
11010;SDS011;5558;42.702;23.178;2022-07-09T12:51:41;1.70;;;1.60;;
11010;SDS011;5558;42.702;23.178;2022-07-09T12:54:07;1.43;;;1.40;;
11010;SDS011;5558;42.702;23.178;2022-07-09T12:56:34;1.57;;;1.47;;
11010;SDS011;5558;42.702;23.178;2022-07-09T12:59:03;1.63;;;1.50;;
11010;SDS011;5558;42.702;23.178;2022-07-09T13:01:29;1.53;;;1.50;;
11010;SDS011;5558;42.702;23.178;2022-07-09T13:03:56;1.70;;;1.60;;
11010;SDS011;5558;42.702;23.178;2022-07-09T13:06:23;1.37;;;1.20;;
11010;SDS011;5558;42.702;23.178;2022-07-09T13:09:00;1.53;;;1.43;;
11010;SDS011;5558;42.702;23.178;2022-07-09T13:11:28;1.40;;;1.40;;
11010;SDS011;5558;42.702;23.178;2022-07-09T13:13:56;2.73;;;1.50;;
11010;SDS011;5558;42.702;23.178;2022-07-09T13:16:25;1.50;;;1.40;;
11010;SDS011;5558;42.702;23.178;2022-07-09T13:18:52;1.57;;;1.47;;
11010;SDS011;5558;42.702;23.178;2022-07-09T13:21:19;1.47;;;1.40;;
11010;SDS011;5558;42.702;23.178;2022-07-09T13:23:48;1.60;;;1.50;;
11010;SDS011;5558;42.702;23.178;2022-07-09T13:26:16;1.60;;;1.50;;
11010;SDS011;5558;42.702;23.178;2022-07-09T13:28:43;1.60;;;1.50;;
11010;SDS011;5558;42.702;23.178;2022-07-09T13:31:10;1.40;;;1.40;;
11010;SDS011;5558;42.702;23.178;2022-07-09T13:33:40;1.50;;;1.50;;
11010;SDS011;5558;42.702;23.178;2022-07-09T13:36:07;1.40;;;1.40;;
11010;SDS011;5558;42.702;23.178;2022-07-09T13:38:34;1.40;;;1.30;;
11010;SDS011;5558;42.702;23.178;2022-07-09T13:41:01;1.50;;;1.40;;
11010;SDS011;5558;42.702;23.178;2022-07-09T13:43:28;1.60;;;1.50;;
11010;SDS011;5558;42.702;23.178;2022-07-09T13:45:55;1.50;;;1.40;;
11010;SDS011;5558;42.702;23.178;2022-07-09T13:48:23;1.43;;;1.40;;
11010;SDS011;5558;42.702;23.178;2022-07-09T13:50:52;1.40;;;1.40;;
11010;SDS011;5558;42.702;23.178;2022-07-09T13:53:19;1.30;;;1.30;;
11010;SDS011;5558;42.702;23.178;2022-07-09T13:55:46;1.40;;;1.40;;
11010;SDS011;5558;42.702;23.178;2022-07-09T13:58:13;1.70;;;1.60;;
11010;SDS011;5558;42.702;23.178;2022-07-09T14:00:39;1.60;;;1.50;;
11010;SDS011;5558;42.702;23.178;2022-07-09T14:03:06;1.20;;;1.20;;
11010;SDS011;5558;42.702;23.178;2022-07-09T14:05:34;1.33;;;1.33;;
11010;SDS011;5558;42.702;23.178;2022-07-09T14:08:03;1.50;;;1.40;;
11010;SDS011;5558;42.702;23.178;2022-07-09T14:10:30;1.70;;;1.60;;
11010;SDS011;5558;42.702;23.178;2022-07-09T14:12:57;1.40;;;1.40;;
11010;SDS011;5558;42.702;23.178;2022-07-09T14:15:24;1.60;;;1.50;;
11010;SDS011;5558;42.702;23.178;2022-07-09T14:17:51;1.50;;;1.40;;
11010;SDS011;5558;42.702;23.178;2022-07-09T14:20:18;1.70;;;1.60;;
11010;SDS011;5558;42.702;23.178;2022-07-09T14:22:46;1.60;;;1.30;;
11010;SDS011;5558;42.702;23.178;2022-07-09T14:25:14;1.60;;;1.50;;
11010;SDS011;5558;42.702;23.178;2022-07-09T14:27:41;2.40;;;1.47;;
11010;SDS011;5558;42.702;23.178;2022-07-09T14:30:08;1.60;;;1.50;;
11010;SDS011;5558;42.702;23.178;2022-07-09T14:32:35;1.70;;;1.50;;
11010;SDS011;5558;42.702;23.178;2022-07-09T14:35:02;1.57;;;1.47;;
11010;SDS011;5558;42.702;23.178;2022-07-09T14:37:29;1.70;;;1.60;;
11010;SDS011;5558;42.702;23.178;2022-07-09T14:39:56;1.60;;;1.50;;
11010;SDS011;5558;42.702;23.178;2022-07-09T14:42:24;1.80;;;1.70;;
11010;SDS011;5558;42.702;23.178;2022-07-09T14:44:52;1.87;;;1.50;;
11010;SDS011;5558;42.702;23.178;2022-07-09T14:47:19;1.60;;;1.50;;
11010;SDS011;5558;42.702;23.178;2022-07-09T14:49:46;1.93;;;1.80;;
11010;SDS011;5558;42.702;23.178;2022-07-09T14:52:13;1.70;;;1.60;;